Latest Weather Observations for Melbourne (Olympic Park)

IDV60901

Issued at 8:21 pm EDT Wednesday 1 April 2015 (issued every 10 minutes, with the page automatically refreshed every 10 minutes)

About weather observations | Map of Melbourne area stations | Latest observations for Melbourne area | Other Formats
Station Details ID: 086338 Name: MELBOURNE (OLYMPIC PARK) Lat: -37.83 Lon: 144.98 Height: 7.53 m
Data from the previous 72 hours. | See also: Recent months at Melbourne (Olympic Park)
Date/Time
EDT
Tmp

°C
App
Tmp
°C
Dew
Point
°C
Rel
Hum
%
Delta-T

°C
Wind Press
QNH
hPa
Press
MSL
hPa
Rain
since
9 am
mm
Dir
 
Spd
km/h
Gust
km/h
Spd
kts
Gust
kts
01/08:00pm 27.7 25.2 8.1 29 10.6 N 11 19 6 10 1011.9 1011.9 0.0
01/07:30pm 27.7 26.1 8.6 30 10.4 N 7 11 4 6 1011.6 1011.6 0.0
01/07:00pm 27.9 25.9 8.7 30 10.5 N 9 15 5 8 1011.6 1011.6 0.0
01/06:30pm 28.4 25.6 8.7 29 10.8 N 13 20 7 11 1011.7 1011.7 0.0
01/06:00pm 28.8 26.5 9.0 29 10.9 NNW 11 17 6 9 1012.0 1012.0 0.0
01/05:30pm 28.7 25.6 8.9 29 10.9 NNW 15 24 8 13 1011.9 1011.9 0.0
01/05:00pm 28.8 25.0 9.0 29 10.9 NNW 19 37 10 20 1012.0 1012.0 0.0
01/04:30pm 28.8 24.2 9.5 30 10.8 NNW 24 39 13 21 1012.3 1012.3 0.0
01/04:00pm 28.3 24.6 11.4 35 9.7 N 22 39 12 21 1012.4 1012.4 0.0
01/03:30pm 27.9 24.1 11.0 35 9.6 N 22 35 12 19 1013.1 1013.1 0.0
01/03:00pm 28.1 24.7 11.2 35 9.7 N 20 35 11 19 1013.5 1013.5 0.0
01/02:30pm 28.2 24.9 11.7 36 9.5 N 20 35 11 19 1013.9 1013.9 0.0
01/02:00pm 28.7 23.7 10.8 33 10.2 NNW 28 41 15 22 1014.6 1014.6 0.0
01/01:35pm 27.6 22.6 10.8 35 9.5 N 28 46 15 25 1015.0 1015.0 0.0
01/01:30pm 28.0 23.5 11.5 35 9.5 NNW 26 41 14 22 1015.1 1015.1 0.0
01/01:00pm 27.9 24.3 11.9 37 9.2 N 22 35 12 19 1015.4 1015.4 0.0
01/12:30pm 26.7 22.5 11.2 38 8.8 N 24 39 13 21 1016.2 1016.2 0.0
01/12:00pm 25.5 22.2 11.7 42 7.8 N 20 32 11 17 1016.8 1016.8 0.0
01/11:30am 25.3 22.6 11.8 43 7.7 N 17 35 9 19 1017.3 1017.3 0.0
01/11:00am 23.6 21.8 12.0 48 6.6 NNE 13 20 7 11 1017.9 1017.9 0.0
01/10:30am 22.3 19.1 11.1 49 6.2 N 19 39 10 21 1018.4 1018.4 0.0
01/10:00am 21.4 18.2 11.1 52 5.7 N 19 26 10 14 1018.8 1018.8 0.0
01/09:30am 20.7 18.1 10.8 53 5.4 N 15 24 8 13 1019.2 1019.2 0.0
01/09:00am 19.5 17.5 10.2 55 5.0 N 11 19 6 10 1019.3 1019.3 0.0
01/08:30am 18.3 16.9 9.6 57 4.6 N 7 11 4 6 1019.2 1019.2 0.0
01/08:00am 17.2 15.8 9.6 61 4.0 N 7 11 4 6 1018.9 1018.9 0.0
01/07:30am 16.3 14.6 9.9 66 3.3 NNE 9 13 5 7 1018.9 1018.9 0.0
01/07:00am 15.9 13.9 10.0 68 3.1 NNE 11 17 6 9 1019.0 1019.0 0.0
01/06:30am 15.6 13.6 10.2 70 2.8 NNE 11 17 6 9 1018.9 1018.9 0.0
01/06:00am 15.6 13.7 10.6 72 2.6 NNE 11 15 6 8 1019.0 1019.0 0.0
01/05:30am 15.2 13.4 10.8 75 2.3 NNE 11 15 6 8 1018.9 1018.9 0.0
01/05:00am 15.2 13.8 10.8 75 2.3 NNE 9 13 5 7 1019.0 1019.0 0.0
01/04:30am 15.3 14.0 11.1 76 2.2 NNE 9 13 5 7 1019.1 1019.1 0.0
01/04:00am 15.5 14.6 11.3 76 2.2 NNE 7 11 4 6 1019.5 1019.5 0.0
01/03:30am 15.9 14.6 11.3 74 2.5 NNE 9 13 5 7 1019.9 1019.9 0.0
01/03:00am 16.0 15.2 11.2 73 2.6 N 6 15 3 8 1020.2 1020.2 0.0
01/02:30am 16.1 15.0 11.9 76 2.3 NNE 9 15 5 8 1020.5 1020.5 0.0
01/02:00am 16.2 15.2 12.4 78 2.1 NNE 9 13 5 7 1020.8 1020.8 0.0
01/01:30am 16.3 15.6 13.2 82 1.7 NNE 9 11 5 6 1021.1 1021.1 0.0
01/01:00am 15.0 16.4 14.4 96 0.3 CALM 0 0 0 0 1021.3 1021.3 0.0
01/12:30am 15.3 16.7 14.5 95 0.5 CALM 0 0 0 0 1021.7 1021.7 0.0
01/12:00am 15.6 17.0 14.5 93 0.6 CALM 0 0 0 0 1021.9 1021.9 0.0
 
Date/Time
EDT
Tmp

°C
App
Tmp
°C
Dew
Point
°C
Rel
Hum
%
Delta-T

°C
Wind Press
QNH
hPa
Press
MSL
hPa
Rain
since
9 am
mm
Dir
 
Spd
km/h
Gust
km/h
Spd
kts
Gust
kts
31/11:30pm 15.8 17.2 14.3 91 0.9 CALM 0 0 0 0 1022.0 1022.0 0.0
31/11:00pm 16.4 17.9 14.6 89 1.0 CALM 0 0 0 0 1021.9 1021.9 0.0
31/10:30pm 16.8 18.2 14.3 85 1.4 CALM 0 0 0 0 1022.0 1022.0 0.0
31/10:00pm 17.6 18.9 14.1 80 2.0 CALM 0 0 0 0 1022.3 1022.3 0.0
31/09:30pm 18.2 19.5 14.1 77 2.3 CALM 0 4 0 2 1022.5 1022.5 0.0
31/09:00pm 18.8 19.3 14.1 74 2.7 SSW 4 9 2 5 1022.2 1022.2 0.0
31/08:30pm 18.7 20.0 14.2 75 2.6 CALM 0 6 0 3 1021.8 1021.8 0.0
31/08:00pm 19.4 21.0 14.9 75 2.6 CALM 0 0 0 0 1021.5 1021.5 0.0
31/07:30pm 19.5 21.3 15.4 77 2.4 CALM 0 6 0 3 1021.1 1021.1 0.0
31/07:00pm 20.6 21.8 14.9 70 3.3 SSW 2 6 1 3 1021.1 1021.1 0.0
31/06:30pm 22.1 21.7 12.4 54 5.5 SW 6 13 3 7 1021.2 1021.2 0.0
31/06:00pm 22.8 22.8 14.1 58 5.1 SW 7 11 4 6 1021.0 1021.0 0.0
31/05:30pm 22.6 22.9 15.0 62 4.5 SW 7 15 4 8 1021.0 1021.0 0.0
31/05:00pm 23.8 23.8 14.2 55 5.6 SW 7 13 4 7 1021.1 1021.1 0.0
31/04:30pm 24.8 24.2 12.4 46 7.1 SSW 7 15 4 8 1021.4 1021.4 0.0
31/04:00pm 24.4 24.1 13.3 50 6.4 SSW 7 13 4 7 1021.7 1021.7 0.0
31/03:30pm 23.7 23.5 13.6 53 5.9 SW 7 15 4 8 1022.1 1022.1 0.0
31/03:00pm 22.3 21.2 13.1 56 5.3 SSW 11 19 6 10 1022.4 1022.4 0.0
31/02:30pm 22.4 21.8 13.5 57 5.1 SSW 9 13 5 7 1022.7 1022.7 0.0
31/02:00pm 21.9 21.1 13.0 57 5.1 SSW 9 15 5 8 1023.3 1023.3 0.0
31/01:30pm 22.0 20.9 13.1 57 5.1 SSW 11 17 6 9 1023.8 1023.8 0.0
31/01:00pm 22.9 22.9 11.0 47 6.6 NE 2 9 1 5 1024.4 1024.4 0.0
31/12:30pm 21.9 21.1 11.0 50 6.0 NNE 6 13 3 7 1024.9 1024.9 0.0
31/12:00pm 20.8 20.3 10.6 52 5.5 NNE 4 13 2 7 1025.6 1025.6 0.0
31/11:30am 20.2 19.6 11.7 58 4.7 NE 6 9 3 5 1026.2 1026.2 0.0
31/11:00am 19.1 19.3 11.7 62 4.1 N 2 6 1 3 1026.8 1026.8 0.0
31/10:30am 17.9 18.5 11.9 68 3.3 CALM 0 0 0 0 1027.2 1027.2 0.0
31/10:00am 16.3 16.6 10.8 70 2.9 CALM 0 0 0 0 1027.1 1027.1 0.0
31/09:30am 14.9 14.8 10.9 77 2.1 NNE 2 7 1 4 1027.0 1027.0 0.0
31/09:00am 13.3 12.0 10.1 81 1.6 NE 7 11 4 6 1026.8 1026.8 0.0
31/08:30am 12.1 10.8 9.8 86 1.2 NE 7 11 4 6 1026.6 1026.6 0.0
31/08:00am 11.7 10.4 9.9 89 0.9 NE 7 11 4 6 1026.3 1026.3 0.0
31/07:30am 11.4 11.6 10.6 95 0.4 CALM 0 0 0 0 1026.2 1026.2 0.0
31/07:00am 11.7 11.5 10.3 91 0.7 NE 2 7 1 4 1025.9 1025.9 0.0
31/06:30am 11.7 11.8 11.4 98 0.2 ESE 2 6 1 3 1025.6 1025.6 0.0
31/06:00am 12.1 12.7 11.9 99 0.1 CALM 0 2 0 1 1025.5 1025.5 0.0
31/05:30am 12.3 13.0 12.1 99 0.1 CALM 0 0 0 0 1025.3 1025.3 0.0
31/05:00am 12.4 13.1 12.1 98 0.2 CALM 0 0 0 0 1025.2 1025.2 0.0
31/04:30am 12.6 13.3 12.3 98 0.2 CALM 0 0 0 0 1025.2 1025.2 0.0
31/04:00am 12.6 13.2 12.0 96 0.3 CALM 0 0 0 0 1025.4 1025.4 0.0
31/03:30am 12.6 13.2 11.8 95 0.4 CALM 0 0 0 0 1025.6 1025.6 0.0
31/03:00am 13.0 13.7 12.1 94 0.5 CALM 0 0 0 0 1025.7 1025.7 0.0
31/02:30am 12.9 13.5 11.8 93 0.6 CALM 0 0 0 0 1025.8 1025.8 0.0
31/02:00am 13.2 13.8 11.9 92 0.7 CALM 0 0 0 0 1025.9 1025.9 0.0
31/01:30am 13.4 14.0 11.8 90 0.9 CALM 0 0 0 0 1026.0 1026.0 0.0
31/01:00am 13.8 14.3 11.7 87 1.1 CALM 0 0 0 0 1026.1 1026.1 0.0
31/12:30am 14.2 14.7 11.5 84 1.4 CALM 0 0 0 0 1026.2 1026.2 0.0
31/12:00am 14.6 15.1 11.6 82 1.6 CALM 0 2 0 1 1026.3 1026.3 0.0
 
Date/Time
EDT
Tmp

°C
App
Tmp
°C
Dew
Point
°C
Rel
Hum
%
Delta-T

°C
Wind Press
QNH
hPa
Press
MSL
hPa
Rain
since
9 am
mm
Dir
 
Spd
km/h
Gust
km/h
Spd
kts
Gust
kts
30/11:30pm 15.3 15.8 11.7 79 1.9 CALM 0 6 0 3 1026.4 1026.4 0.0
30/11:00pm 15.6 16.1 11.6 77 2.1 CALM 0 7 0 4 1026.5 1026.5 0.0
30/10:30pm 15.8 16.3 11.6 76 2.3 CALM 0 6 0 3 1026.4 1026.4 0.0
30/10:00pm 16.6 16.3 11.5 72 2.7 S 4 9 2 5 1026.4 1026.4 0.0
30/09:30pm 17.4 16.6 11.2 67 3.4 S 6 11 3 6 1026.3 1026.3 0.0
30/09:00pm 18.0 17.2 11.1 64 3.7 S 6 11 3 6 1026.0 1026.0 0.0
30/08:30pm 18.7 16.8 10.5 59 4.4 SSE 11 17 6 9 1025.6 1025.6 0.0
30/08:00pm 18.5 18.5 12.3 67 3.4 SSW 4 11 2 6 1025.1 1025.1 0.0
30/07:30pm 19.0 18.4 11.8 63 4.0 SSW 6 13 3 7 1024.7 1024.7 0.0
30/07:00pm 19.5 18.6 11.5 60 4.4 SSW 7 15 4 8 1024.6 1024.6 0.0
30/06:30pm 20.1 19.0 12.1 60 4.5 SSW 9 17 5 9 1024.2 1024.2 0.0
30/06:00pm 21.7 20.4 11.4 52 5.7 SW 9 15 5 8 1023.8 1023.8 0.0
30/05:30pm 22.4 20.3 9.6 44 6.9 SSW 11 19 6 10 1023.4 1023.4 0.0
30/05:00pm 22.4 20.7 9.9 45 6.8 SSW 9 15 5 8 1023.0 1023.0 0.0
30/04:30pm 22.7 20.0 8.8 41 7.4 SSW 13 20 7 11 1023.0 1023.0 0.0
30/04:00pm 22.5 20.3 9.3 43 7.1 S 11 17 6 9 1023.1 1023.1 0.0
30/03:30pm 22.0 19.4 9.5 45 6.7 SSW 13 20 7 11 1023.4 1023.4 0.0
30/03:00pm 22.7 21.2 10.5 46 6.7 S 9 15 5 8 1023.5 1023.5 0.0
30/02:30pm 21.4 19.1 10.3 49 6.0 SSW 13 20 7 11 1023.7 1023.7 0.0
30/02:00pm 21.2 19.1 9.8 48 6.1 S 11 19 6 10 1023.8 1023.8 0.0
30/01:30pm 20.8 18.3 9.7 49 5.9 SSW 13 20 7 11 1024.0 1024.0 0.0
30/01:00pm 21.0 18.9 9.6 48 6.1 SSW 11 19 6 10 1024.2 1024.2 0.0
30/12:30pm 21.0 20.0 8.9 46 6.4 N 4 6 2 3 1024.4 1024.4 0.0
30/12:00pm 20.9 20.0 9.2 47 6.2 W 4 7 2 4 1024.6 1024.6 0.0
30/11:30am 20.2 20.1 9.5 50 5.7 CALM 0 0 0 0 1024.9 1024.9 0.0
30/11:00am 18.8 18.2 10.4 58 4.5 NNE 4 7 2 4 1025.2 1025.2 0.0
30/10:30am 17.2 16.5 9.9 62 3.8 NNW 4 7 2 4 1025.1 1025.1 0.0
30/10:00am 15.9 16.0 10.0 68 3.1 CALM 0 0 0 0 1025.0 1025.0 0.0
30/09:30am 14.6 13.2 9.6 72 2.6 NNE 7 9 4 5 1024.8 1024.8 0.0
30/09:00am 13.3 13.4 10.1 81 1.6 CALM 0 0 0 0 1024.6 1024.6 0.0
30/08:30am 11.2 11.0 8.9 86 1.1 CALM 0 0 0 0 1024.4 1024.4 0.0
30/08:00am 10.9 9.9 8.7 86 1.1 NNE 4 7 2 4 1024.1 1024.1 0.0
30/07:30am 10.7 9.9 8.1 84 1.3 NNE 2 7 1 4 1023.7 1023.7 0.0
30/07:00am 11.0 9.5 8.4 84 1.3 NNE 6 7 3 4 1023.4 1023.4 0.0
30/06:30am 11.4 9.8 8.8 84 1.3 NNE 7 11 4 6 1023.0 1023.0 0.0
30/06:00am 11.3 9.3 8.7 84 1.3 NE 9 13 5 7 1022.8 1022.8 0.0
30/05:30am 11.6 10.1 9.2 85 1.2 NE 7 11 4 6 1022.9 1022.9 0.0
30/05:00am 11.2 10.4 9.6 90 0.8 N 4 9 2 5 1022.8 1022.8 0.0
30/04:30am 11.5 10.4 9.9 90 0.8 NE 6 9 3 5 1022.6 1022.6 0.0
30/04:00am 11.3 11.4 10.2 93 0.6 CALM 0 0 0 0 1022.8 1022.8 0.0
30/03:30am 11.7 11.8 10.3 91 0.7 CALM 0 0 0 0 1023.1 1023.1 0.0
30/03:00am 12.9 12.6 10.1 83 1.4 NNE 2 9 1 5 1023.2 1023.2 0.0
30/02:30am 12.3 12.7 11.2 93 0.6 CALM 0 6 0 3 1023.4 1023.4 0.0
30/02:00am 12.1 12.4 11.0 93 0.6 CALM 0 0 0 0 1023.5 1023.5 0.0
30/01:30am 12.4 12.7 11.0 91 0.7 CALM 0 0 0 0 1023.6 1023.6 0.0
30/01:00am 12.6 12.9 11.0 90 0.8 CALM 0 0 0 0 1023.6 1023.6 0.0
30/12:30am 12.9 13.3 11.1 89 0.9 CALM 0 0 0 0 1023.7 1023.7 0.0
30/12:00am 13.5 13.8 11.0 85 1.3 CALM 0 0 0 0 1023.9 1023.9 0.0
 
Date/Time
EDT
Tmp

°C
App
Tmp
°C
Dew
Point
°C
Rel
Hum
%
Delta-T

°C
Wind Press
QNH
hPa
Press
MSL
hPa
Rain
since
9 am
mm
Dir
 
Spd
km/h
Gust
km/h
Spd
kts
Gust
kts
29/11:30pm 14.3 14.6 10.9 80 1.8 CALM 0 0 0 0 1024.0 1024.0 0.0
29/11:00pm 14.9 15.1 10.7 76 2.2 CALM 0 0 0 0 1024.0 1024.0 0.0
29/10:30pm 15.4 15.6 10.4 72 2.6 CALM 0 2 0 1 1024.1 1024.1 0.0
29/10:00pm 16.0 16.1 10.3 69 3.0 CALM 0 0 0 0 1024.0 1024.0 0.0
29/09:30pm 16.7 15.6 9.9 64 3.6 SSE 6 11 3 6 1023.7 1023.7 0.0
29/09:00pm 17.3 15.1 9.5 60 4.1 SE 11 20 6 11 1023.3 1023.3 0.0
29/08:30pm 17.9 15.6 9.0 56 4.6 SSE 11 20 6 11 1022.6 1022.6 0.0

Latest Capital City Observations: Canberra | Sydney | Melbourne | Brisbane | Adelaide | Perth | Hobart | Darwin

Other Formats:

Comma delimited format used in spreadsheet applications
http://www.bom.gov.au/fwo/IDV60901/IDV60901.95936.axf

JavaScript Object Notation format (JSON) in row-major order
http://www.bom.gov.au/fwo/IDV60901/IDV60901.95936.json